Meteo Giornale » Osservazioni meteo Italia » Lecce

ore: 04:55 - Osservazioni Meteo Lecce
Lat. 40° 14' N Lon. 18° 9' E Alt. 48 metri s.l.m.

foschia Europe/Rome

10 °C

Foschia

Temp. 24 Ore

8 °C

21 °C

Sud-Est

11.1 Km/h

Dew point 9 °C

Umidità 93 %

Visibilità  4 Km

Il sole sorge alle ore 05:38

Il sole tramonta alle ore 18:07

Data e Ora Cielo e Fenomeni T °C DP °C Um. % Pres. hPa Vis. km Vento km/h
Oggi h: 04:55 foschia Foschia 10 9 93 1016 4 SE 11.1
Oggi h: 03:55 foschia Foschia 8 7 93 1017 4 S 7.4
Oggi h: 03:55 sereno Sereno 8 6 87 1018 8 SE 7.4
Oggi h: 01:55 sereno Sereno 8 8 100 1018 8 N 5.5
Oggi h: 00:55 sereno Sereno 8 6 87 1019 8 N 1.8
Ieri h: 23:55 sereno Sereno 10 8 87 1019 8 N 5.5
Ieri h: 22:55 sereno Sereno 11 9 87 1019 8 N 1.8
Ieri h: 21:55 sereno Sereno 10 8 87 1019 8 N 5.5
Ieri h: 20:55 sereno Sereno 11 9 87 1019 8 N 1.8
Ieri h: 19:55 sereno Sereno 13 11 87 1019 10 N 1.8
Ieri h: 18:55 sereno Sereno 14 11 82 1019 10 N 5.5
Ieri h: 17:55 sereno Sereno 18 12 67 1019 10 O/SO 7.4
Ieri h: 16:55 poco_nuvoloso Poco Nuvoloso 20 9 49 1019 10 N/NE 9.3
Ieri h: 15:55 poco_nuvoloso Poco Nuvoloso 20 10 52 1019 10 NE 11.1
Ieri h: 14:55 poco_nuvoloso Poco Nuvoloso 21 9 46 1020 10 NE 11.1
Ieri h: 13:55 poco_nuvoloso Poco Nuvoloso 20 8 45 1020 10 N/NE 7.4
Ieri h: 12:55 poco_nuvoloso Poco Nuvoloso 20 9 49 1021 10 N 9.3
Ieri h: 11:55 sereno Sereno 19 11 59 1022 10 N/NE 9.3
Ieri h: 10:55 sereno Sereno 18 12 67 1022 10 N/NE 11.1
Ieri h: 09:55 sereno Sereno 17 14 82 1022 8 NE 9.3
Ieri h: 08:55 foschia Foschia 14 13 93 1021 5 N 11.1
Ieri h: 08:14 foschia Foschia 13 12 93 1021 3 N 7.4
Ieri h: 07:55 foschia Foschia 12 10 87 1021 2 NE 9.3
Ieri h: 06:55 nebbia Nebbia 9 7 87 1021 0.1 NE 7.4